sensor_id;sensor_type;location;lat;lon;timestamp;temperature;humidity
4429;DHT22;2227;47.810;8.810;2023-07-09T04:32:02;17.70;99.90
4429;DHT22;2227;47.810;8.810;2023-07-09T04:34:29;17.80;99.90
4429;DHT22;2227;47.810;8.810;2023-07-09T04:36:56;17.80;99.90
4429;DHT22;2227;47.810;8.810;2023-07-09T04:39:23;17.80;99.90
4429;DHT22;2227;47.810;8.810;2023-07-09T04:41:50;17.80;99.90
4429;DHT22;2227;47.810;8.810;2023-07-09T04:44:16;17.80;99.90
4429;DHT22;2227;47.810;8.810;2023-07-09T04:46:43;17.90;99.90
4429;DHT22;2227;47.810;8.810;2023-07-09T04:49:10;17.90;99.90
4429;DHT22;2227;47.810;8.810;2023-07-09T04:51:39;18.00;99.90
4429;DHT22;2227;47.810;8.810;2023-07-09T04:54:05;18.00;99.90
4429;DHT22;2227;47.810;8.810;2023-07-09T04:56:32;18.10;99.90
4429;DHT22;2227;47.810;8.810;2023-07-09T04:58:59;18.10;99.90
4429;DHT22;2227;47.810;8.810;2023-07-09T05:01:26;18.20;99.90
4429;DHT22;2227;47.810;8.810;2023-07-09T05:03:54;18.20;99.90
4429;DHT22;2227;47.810;8.810;2023-07-09T05:06:21;18.30;99.90
4429;DHT22;2227;47.810;8.810;2023-07-09T05:08:48;18.40;99.90
4429;DHT22;2227;47.810;8.810;2023-07-09T05:11:15;18.40;99.90
4429;DHT22;2227;47.810;8.810;2023-07-09T05:13:42;18.50;99.90
4429;DHT22;2227;47.810;8.810;2023-07-09T05:16:09;18.60;99.90
4429;DHT22;2227;47.810;8.810;2023-07-09T05:18:36;18.60;99.90
4429;DHT22;2227;47.810;8.810;2023-07-09T05:21:03;18.70;99.90
4429;DHT22;2227;47.810;8.810;2023-07-09T05:23:30;18.80;99.90
4429;DHT22;2227;47.810;8.810;2023-07-09T05:25:59;18.80;99.90
4429;DHT22;2227;47.810;8.810;2023-07-09T05:28:27;18.90;99.90
4429;DHT22;2227;47.810;8.810;2023-07-09T05:30:54;19.00;99.90
4429;DHT22;2227;47.810;8.810;2023-07-09T05:33:22;19.10;99.90
4429;DHT22;2227;47.810;8.810;2023-07-09T05:35:48;19.20;99.90
4429;DHT22;2227;47.810;8.810;2023-07-09T05:38:16;19.30;99.90
4429;DHT22;2227;47.810;8.810;2023-07-09T05:40:43;19.40;99.90
4429;DHT22;2227;47.810;8.810;2023-07-09T05:43:10;19.50;99.90
4429;DHT22;2227;47.810;8.810;2023-07-09T05:45:41;19.50;99.90
4429;DHT22;2227;47.810;8.810;2023-07-09T05:48:07;19.70;99.90
4429;DHT22;2227;47.810;8.810;2023-07-09T05:50:35;19.70;99.90
4429;DHT22;2227;47.810;8.810;2023-07-09T05:53:02;19.80;99.90
4429;DHT22;2227;47.810;8.810;2023-07-09T05:55:29;19.90;99.90
4429;DHT22;2227;47.810;8.810;2023-07-09T05:57:55;20.00;99.90
4429;DHT22;2227;47.810;8.810;2023-07-09T06:00:23;20.10;99.90
4429;DHT22;2227;47.810;8.810;2023-07-09T06:02:50;20.30;99.90
4429;DHT22;2227;47.810;8.810;2023-07-09T06:05:17;20.30;99.90
4429;DHT22;2227;47.810;8.810;2023-07-09T06:07:44;20.40;99.90
4429;DHT22;2227;47.810;8.810;2023-07-09T06:10:11;20.50;99.90
4429;DHT22;2227;47.810;8.810;2023-07-09T06:12:38;20.60;99.90
4429;DHT22;2227;47.810;8.810;2023-07-09T06:15:05;20.70;99.90
4429;DHT22;2227;47.810;8.810;2023-07-09T06:17:32;20.80;99.90
4429;DHT22;2227;47.810;8.810;2023-07-09T06:19:59;20.90;99.90
4429;DHT22;2227;47.810;8.810;2023-07-09T06:22:26;21.00;99.90
4429;DHT22;2227;47.810;8.810;2023-07-09T06:24:54;21.10;99.90
4429;DHT22;2227;47.810;8.810;2023-07-09T06:27:21;21.20;99.90
4429;DHT22;2227;47.810;8.810;2023-07-09T06:29:48;21.30;99.90
4429;DHT22;2227;47.810;8.810;2023-07-09T06:32:14;21.40;99.90
4429;DHT22;2227;47.810;8.810;2023-07-09T06:34:41;21.50;99.90
4429;DHT22;2227;47.810;8.810;2023-07-09T06:37:08;21.60;99.90
4429;DHT22;2227;47.810;8.810;2023-07-09T06:39:34;21.80;99.90
4429;DHT22;2227;47.810;8.810;2023-07-09T06:42:01;21.90;99.90
4429;DHT22;2227;47.810;8.810;2023-07-09T06:44:28;21.90;99.90
4429;DHT22;2227;47.810;8.810;2023-07-09T06:46:55;22.00;99.90
4429;DHT22;2227;47.810;8.810;2023-07-09T06:49:21;22.10;99.90
4429;DHT22;2227;47.810;8.810;2023-07-09T06:51:48;22.30;99.90
4429;DHT22;2227;47.810;8.810;2023-07-09T06:54:15;22.30;99.90
4429;DHT22;2227;47.810;8.810;2023-07-09T06:56:42;22.40;99.90
4429;DHT22;2227;47.810;8.810;2023-07-09T06:59:09;22.50;99.90
4429;DHT22;2227;47.810;8.810;2023-07-09T07:01:36;22.60;99.90
4429;DHT22;2227;47.810;8.810;2023-07-09T07:04:03;22.70;99.90
4429;DHT22;2227;47.810;8.810;2023-07-09T07:06:30;22.80;99.90
4429;DHT22;2227;47.810;8.810;2023-07-09T07:08:57;22.90;99.90
4429;DHT22;2227;47.810;8.810;2023-07-09T07:11:24;23.00;99.90
4429;DHT22;2227;47.810;8.810;2023-07-09T07:13:56;23.10;99.90
4429;DHT22;2227;47.810;8.810;2023-07-09T07:16:24;23.20;99.90
4429;DHT22;2227;47.810;8.810;2023-07-09T07:18:51;23.40;99.90
4429;DHT22;2227;47.810;8.810;2023-07-09T07:21:18;23.50;99.90
4429;DHT22;2227;47.810;8.810;2023-07-09T07:23:44;23.60;99.90
4429;DHT22;2227;47.810;8.810;2023-07-09T07:26:11;23.80;99.90
4429;DHT22;2227;47.810;8.810;2023-07-09T07:28:38;23.80;99.90
4429;DHT22;2227;47.810;8.810;2023-07-09T07:31:07;23.90;99.90
4429;DHT22;2227;47.810;8.810;2023-07-09T07:33:34;24.10;99.90
4429;DHT22;2227;47.810;8.810;2023-07-09T07:36:04;24.10;99.90
4429;DHT22;2227;47.810;8.810;2023-07-09T07:38:51;24.20;99.90
4429;DHT22;2227;47.810;8.810;2023-07-09T07:41:18;24.20;99.90
4429;DHT22;2227;47.810;8.810;2023-07-09T07:43:45;24.30;99.90
4429;DHT22;2227;47.810;8.810;2023-07-09T07:46:11;24.50;99.90
4429;DHT22;2227;47.810;8.810;2023-07-09T07:48:38;24.60;99.90
4429;DHT22;2227;47.810;8.810;2023-07-09T07:51:05;24.70;99.90
4429;DHT22;2227;47.810;8.810;2023-07-09T07:53:32;24.80;99.90
4429;DHT22;2227;47.810;8.810;2023-07-09T07:55:59;24.90;99.90
4429;DHT22;2227;47.810;8.810;2023-07-09T07:58:26;25.00;99.90
4429;DHT22;2227;47.810;8.810;2023-07-09T08:00:57;25.10;99.90
4429;DHT22;2227;47.810;8.810;2023-07-09T08:03:24;25.20;99.90
4429;DHT22;2227;47.810;8.810;2023-07-09T08:05:52;25.30;99.90
4429;DHT22;2227;47.810;8.810;2023-07-09T08:08:19;25.40;99.90
4429;DHT22;2227;47.810;8.810;2023-07-09T08:10:46;25.60;99.90
4429;DHT22;2227;47.810;8.810;2023-07-09T08:13:12;25.70;99.90
4429;DHT22;2227;47.810;8.810;2023-07-09T08:15:39;25.80;99.90
4429;DHT22;2227;47.810;8.810;2023-07-09T08:18:06;26.00;99.90
4429;DHT22;2227;47.810;8.810;2023-07-09T08:20:33;26.10;99.90
4429;DHT22;2227;47.810;8.810;2023-07-09T08:23:00;26.20;99.90
4429;DHT22;2227;47.810;8.810;2023-07-09T08:25:27;26.40;99.90
4429;DHT22;2227;47.810;8.810;2023-07-09T08:27:53;26.60;99.90
4429;DHT22;2227;47.810;8.810;2023-07-09T08:30:20;26.70;99.90
4429;DHT22;2227;47.810;8.810;2023-07-09T08:32:47;26.80;99.90
4429;DHT22;2227;47.810;8.810;2023-07-09T08:35:14;27.00;99.90
4429;DHT22;2227;47.810;8.810;2023-07-09T08:38:01;27.10;99.90
4429;DHT22;2227;47.810;8.810;2023-07-09T08:40:28;27.40;99.90
4429;DHT22;2227;47.810;8.810;2023-07-09T08:43:06;27.50;99.90
4429;DHT22;2227;47.810;8.810;2023-07-09T08:45:57;27.60;99.90
4429;DHT22;2227;47.810;8.810;2023-07-09T08:48:31;27.80;99.90
4429;DHT22;2227;47.810;8.810;2023-07-09T08:51:35;27.90;99.90
4429;DHT22;2227;47.810;8.810;2023-07-09T08:53:58;28.10;99.90
4429;DHT22;2227;47.810;8.810;2023-07-09T08:56:32;28.20;99.00
4429;DHT22;2227;47.810;8.810;2023-07-09T08:59:01;28.30;99.00
4429;DHT22;2227;47.810;8.810;2023-07-09T09:01:49;28.50;99.10
4429;DHT22;2227;47.810;8.810;2023-07-09T09:04:25;28.70;98.40
4429;DHT22;2227;47.810;8.810;2023-07-09T09:07:19;28.90;98.00
4429;DHT22;2227;47.810;8.810;2023-07-09T09:09:56;29.20;97.40
4429;DHT22;2227;47.810;8.810;2023-07-09T09:12:28;29.40;97.20
4429;DHT22;2227;47.810;8.810;2023-07-09T09:15:03;29.50;95.70
4429;DHT22;2227;47.810;8.810;2023-07-09T09:17:34;29.70;95.40
4429;DHT22;2227;47.810;8.810;2023-07-09T09:20:08;29.80;96.10
4429;DHT22;2227;47.810;8.810;2023-07-09T09:22:44;29.90;96.30
4429;DHT22;2227;47.810;8.810;2023-07-09T09:25:21;30.10;95.50
4429;DHT22;2227;47.810;8.810;2023-07-09T09:27:49;30.20;95.10
4429;DHT22;2227;47.810;8.810;2023-07-09T09:30:19;30.30;95.30
4429;DHT22;2227;47.810;8.810;2023-07-09T09:32:58;30.40;94.70
4429;DHT22;2227;47.810;8.810;2023-07-09T09:35:31;30.60;93.90
4429;DHT22;2227;47.810;8.810;2023-07-09T09:37:58;30.60;93.20
4429;DHT22;2227;47.810;8.810;2023-07-09T09:40:28;30.70;92.70
4429;DHT22;2227;47.810;8.810;2023-07-09T09:42:56;30.80;93.00
4429;DHT22;2227;47.810;8.810;2023-07-09T09:45:32;31.00;92.00
4429;DHT22;2227;47.810;8.810;2023-07-09T09:48:01;31.10;91.20
4429;DHT22;2227;47.810;8.810;2023-07-09T09:50:32;31.30;91.60
4429;DHT22;2227;47.810;8.810;2023-07-09T09:53:00;31.40;91.20
4429;DHT22;2227;47.810;8.810;2023-07-09T09:55:31;31.50;90.10
4429;DHT22;2227;47.810;8.810;2023-07-09T09:57:59;31.70;88.50
4429;DHT22;2227;47.810;8.810;2023-07-09T10:00:28;31.90;90.00
4429;DHT22;2227;47.810;8.810;2023-07-09T10:03:03;31.90;90.10
4429;DHT22;2227;47.810;8.810;2023-07-09T10:06:02;32.10;90.00
4429;DHT22;2227;47.810;8.810;2023-07-09T10:08:45;32.30;86.30
4429;DHT22;2227;47.810;8.810;2023-07-09T10:11:21;32.20;83.70
4429;DHT22;2227;47.810;8.810;2023-07-09T10:13:51;32.20;85.00
4429;DHT22;2227;47.810;8.810;2023-07-09T10:16:27;32.50;84.20
4429;DHT22;2227;47.810;8.810;2023-07-09T10:19:39;32.60;84.60
4429;DHT22;2227;47.810;8.810;2023-07-09T10:27:55;32.60;79.80
4429;DHT22;2227;47.810;8.810;2023-07-09T10:30:46;32.50;80.20
4429;DHT22;2227;47.810;8.810;2023-07-09T10:36:26;32.70;78.80
4429;DHT22;2227;47.810;8.810;2023-07-09T10:41:29;32.80;80.30
4429;DHT22;2227;47.810;8.810;2023-07-09T10:46:35;33.40;78.00
4429;DHT22;2227;47.810;8.810;2023-07-09T10:49:03;33.40;75.90
4429;DHT22;2227;47.810;8.810;2023-07-09T10:51:38;33.60;75.60
4429;DHT22;2227;47.810;8.810;2023-07-09T10:54:39;33.90;73.20
4429;DHT22;2227;47.810;8.810;2023-07-09T10:57:25;34.10;74.10
4429;DHT22;2227;47.810;8.810;2023-07-09T10:59:53;34.30;74.40
4429;DHT22;2227;47.810;8.810;2023-07-09T11:02:29;34.60;72.50
4429;DHT22;2227;47.810;8.810;2023-07-09T11:04:58;34.90;70.50
4429;DHT22;2227;47.810;8.810;2023-07-09T11:07:29;35.00;69.80
4429;DHT22;2227;47.810;8.810;2023-07-09T11:09:58;35.20;68.90
4429;DHT22;2227;47.810;8.810;2023-07-09T11:15:03;35.30;68.10
4429;DHT22;2227;47.810;8.810;2023-07-09T11:17:31;35.40;68.40
4429;DHT22;2227;47.810;8.810;2023-07-09T11:20:06;35.60;67.00
4429;DHT22;2227;47.810;8.810;2023-07-09T11:22:40;35.60;66.40
4429;DHT22;2227;47.810;8.810;2023-07-09T11:25:13;35.60;65.40
4429;DHT22;2227;47.810;8.810;2023-07-09T11:27:50;35.60;64.50
4429;DHT22;2227;47.810;8.810;2023-07-09T11:30:27;35.60;64.10
4429;DHT22;2227;47.810;8.810;2023-07-09T11:33:02;35.60;65.70
4429;DHT22;2227;47.810;8.810;2023-07-09T11:35:52;35.80;64.60
4429;DHT22;2227;47.810;8.810;2023-07-09T11:38:23;36.20;62.80
4429;DHT22;2227;47.810;8.810;2023-07-09T11:40:51;36.40;63.30
4429;DHT22;2227;47.810;8.810;2023-07-09T11:43:33;36.10;61.40
4429;DHT22;2227;47.810;8.810;2023-07-09T11:46:22;35.70;62.10
4429;DHT22;2227;47.810;8.810;2023-07-09T11:48:51;35.30;62.80
4429;DHT22;2227;47.810;8.810;2023-07-09T11:51:37;35.00;63.30
4429;DHT22;2227;47.810;8.810;2023-07-09T11:54:05;34.90;63.80
4429;DHT22;2227;47.810;8.810;2023-07-09T11:56:32;35.10;62.40
4429;DHT22;2227;47.810;8.810;2023-07-09T11:58:59;35.00;61.90
4429;DHT22;2227;47.810;8.810;2023-07-09T12:01:49;35.10;61.00
4429;DHT22;2227;47.810;8.810;2023-07-09T12:04:22;35.30;60.10
4429;DHT22;2227;47.810;8.810;2023-07-09T12:06:52;35.70;62.00
4429;DHT22;2227;47.810;8.810;2023-07-09T12:09:22;36.00;61.10
4429;DHT22;2227;47.810;8.810;2023-07-09T12:11:51;36.30;59.60
4429;DHT22;2227;47.810;8.810;2023-07-09T12:14:20;36.40;58.50
4429;DHT22;2227;47.810;8.810;2023-07-09T12:16:49;36.20;55.70
4429;DHT22;2227;47.810;8.810;2023-07-09T12:19:18;36.00;56.40
4429;DHT22;2227;47.810;8.810;2023-07-09T12:21:49;35.70;57.20
4429;DHT22;2227;47.810;8.810;2023-07-09T12:24:21;35.80;58.40
4429;DHT22;2227;47.810;8.810;2023-07-09T12:26:58;35.70;56.90
4429;DHT22;2227;47.810;8.810;2023-07-09T12:29:30;35.70;55.60
4429;DHT22;2227;47.810;8.810;2023-07-09T12:31:58;36.00;55.80
4429;DHT22;2227;47.810;8.810;2023-07-09T12:34:25;36.30;54.30
4429;DHT22;2227;47.810;8.810;2023-07-09T12:36:53;36.60;54.90
4429;DHT22;2227;47.810;8.810;2023-07-09T12:39:24;36.70;52.20
4429;DHT22;2227;47.810;8.810;2023-07-09T12:41:55;36.20;52.00
4429;DHT22;2227;47.810;8.810;2023-07-09T12:44:23;36.10;52.30
4429;DHT22;2227;47.810;8.810;2023-07-09T12:46:52;36.30;51.70
4429;DHT22;2227;47.810;8.810;2023-07-09T12:49:25;36.30;53.20
4429;DHT22;2227;47.810;8.810;2023-07-09T12:51:56;36.40;50.50
4429;DHT22;2227;47.810;8.810;2023-07-09T12:54:24;36.30;50.00
4429;DHT22;2227;47.810;8.810;2023-07-09T12:56:53;35.90;49.70
4429;DHT22;2227;47.810;8.810;2023-07-09T12:59:26;36.20;49.80
4429;DHT22;2227;47.810;8.810;2023-07-09T13:01:57;36.40;49.90
4429;DHT22;2227;47.810;8.810;2023-07-09T13:04:32;36.70;49.30
4429;DHT22;2227;47.810;8.810;2023-07-09T13:06:59;37.00;48.10
4429;DHT22;2227;47.810;8.810;2023-07-09T13:09:27;37.00;47.70
4429;DHT22;2227;47.810;8.810;2023-07-09T13:11:55;37.10;47.10
4429;DHT22;2227;47.810;8.810;2023-07-09T13:14:30;37.30;46.20
4429;DHT22;2227;47.810;8.810;2023-07-09T13:17:08;37.50;46.90
4429;DHT22;2227;47.810;8.810;2023-07-09T13:19:38;37.70;44.50
4429;DHT22;2227;47.810;8.810;2023-07-09T13:22:07;37.60;45.30
4429;DHT22;2227;47.810;8.810;2023-07-09T13:24:34;37.50;44.80
4429;DHT22;2227;47.810;8.810;2023-07-09T13:27:01;37.60;45.60
4429;DHT22;2227;47.810;8.810;2023-07-09T13:29:31;37.80;42.70
4429;DHT22;2227;47.810;8.810;2023-07-09T13:31:59;37.80;43.10
4429;DHT22;2227;47.810;8.810;2023-07-09T13:34:27;38.20;42.50
4429;DHT22;2227;47.810;8.810;2023-07-09T13:36:57;38.30;42.90
4429;DHT22;2227;47.810;8.810;2023-07-09T13:39:24;37.80;43.10
4429;DHT22;2227;47.810;8.810;2023-07-09T13:41:54;37.80;43.80
4429;DHT22;2227;47.810;8.810;2023-07-09T13:44:24;38.30;43.30
4429;DHT22;2227;47.810;8.810;2023-07-09T13:46:52;38.60;42.30
4429;DHT22;2227;47.810;8.810;2023-07-09T13:49:20;38.90;42.00
4429;DHT22;2227;47.810;8.810;2023-07-09T13:51:50;38.90;41.70
4429;DHT22;2227;47.810;8.810;2023-07-09T13:54:20;38.90;42.10
4429;DHT22;2227;47.810;8.810;2023-07-09T13:56:48;39.00;41.20
4429;DHT22;2227;47.810;8.810;2023-07-09T13:59:24;39.20;42.10
4429;DHT22;2227;47.810;8.810;2023-07-09T14:01:54;39.30;41.20
4429;DHT22;2227;47.810;8.810;2023-07-09T14:04:23;39.20;41.50
4429;DHT22;2227;47.810;8.810;2023-07-09T14:06:49;39.30;40.20
4429;DHT22;2227;47.810;8.810;2023-07-09T14:09:16;39.00;39.70
4429;DHT22;2227;47.810;8.810;2023-07-09T14:11:51;38.40;40.40
4429;DHT22;2227;47.810;8.810;2023-07-09T14:14:24;38.40;41.00
4429;DHT22;2227;47.810;8.810;2023-07-09T14:16:52;38.50;40.40
4429;DHT22;2227;47.810;8.810;2023-07-09T14:19:21;38.60;41.00
4429;DHT22;2227;47.810;8.810;2023-07-09T14:21:49;38.40;41.30
4429;DHT22;2227;47.810;8.810;2023-07-09T14:24:25;38.10;42.30
4429;DHT22;2227;47.810;8.810;2023-07-09T14:26:53;37.20;42.10
4429;DHT22;2227;47.810;8.810;2023-07-09T14:29:21;36.50;42.00
4429;DHT22;2227;47.810;8.810;2023-07-09T14:31:48;36.40;42.50
4429;DHT22;2227;47.810;8.810;2023-07-09T14:34:29;36.60;43.80
4429;DHT22;2227;47.810;8.810;2023-07-09T14:36:58;36.80;43.40
4429;DHT22;2227;47.810;8.810;2023-07-09T14:39:27;37.10;43.30
4429;DHT22;2227;47.810;8.810;2023-07-09T14:41:54;37.50;42.90
4429;DHT22;2227;47.810;8.810;2023-07-09T14:44:31;37.60;42.90
4429;DHT22;2227;47.810;8.810;2023-07-09T14:46:59;37.80;42.80
4429;DHT22;2227;47.810;8.810;2023-07-09T14:49:27;37.60;42.10
4429;DHT22;2227;47.810;8.810;2023-07-09T14:51:54;37.80;41.60
4429;DHT22;2227;47.810;8.810;2023-07-09T14:54:27;38.10;41.50
4429;DHT22;2227;47.810;8.810;2023-07-09T14:56:57;38.10;41.10
4429;DHT22;2227;47.810;8.810;2023-07-09T14:59:25;37.50;41.80
4429;DHT22;2227;47.810;8.810;2023-07-09T15:01:53;37.10;42.40
4429;DHT22;2227;47.810;8.810;2023-07-09T15:04:32;37.40;43.00
4429;DHT22;2227;47.810;8.810;2023-07-09T15:07:00;37.70;41.60
4429;DHT22;2227;47.810;8.810;2023-07-09T15:09:28;37.80;41.30
4429;DHT22;2227;47.810;8.810;2023-07-09T15:11:57;37.70;41.80
4429;DHT22;2227;47.810;8.810;2023-07-09T15:14:26;38.00;41.40
4429;DHT22;2227;47.810;8.810;2023-07-09T15:16:53;38.20;41.20
4429;DHT22;2227;47.810;8.810;2023-07-09T15:19:23;38.40;42.10
4429;DHT22;2227;47.810;8.810;2023-07-09T15:21:50;38.50;41.90
4429;DHT22;2227;47.810;8.810;2023-07-09T15:24:22;38.60;41.60
4429;DHT22;2227;47.810;8.810;2023-07-09T15:26:52;38.50;41.60
4429;DHT22;2227;47.810;8.810;2023-07-09T15:29:20;38.40;41.80
4429;DHT22;2227;47.810;8.810;2023-07-09T15:31:48;38.50;41.20
4429;DHT22;2227;47.810;8.810;2023-07-09T15:34:15;38.60;42.00
4429;DHT22;2227;47.810;8.810;2023-07-09T15:36:47;38.80;41.70
4429;DHT22;2227;47.810;8.810;2023-07-09T15:39:16;39.00;40.50
4429;DHT22;2227;47.810;8.810;2023-07-09T15:41:43;38.90;41.10
4429;DHT22;2227;47.810;8.810;2023-07-09T15:44:14;38.30;41.10
4429;DHT22;2227;47.810;8.810;2023-07-09T15:46:47;38.10;42.10
4429;DHT22;2227;47.810;8.810;2023-07-09T15:49:16;37.80;41.60
4429;DHT22;2227;47.810;8.810;2023-07-09T15:51:43;37.60;41.30
4429;DHT22;2227;47.810;8.810;2023-07-09T15:54:18;37.60;42.20
4429;DHT22;2227;47.810;8.810;2023-07-09T15:56:47;37.80;43.00
4429;DHT22;2227;47.810;8.810;2023-07-09T15:59:27;37.80;42.20
4429;DHT22;2227;47.810;8.810;2023-07-09T16:01:55;37.70;42.70
4429;DHT22;2227;47.810;8.810;2023-07-09T16:04:23;37.80;42.70
4429;DHT22;2227;47.810;8.810;2023-07-09T16:06:50;37.60;41.70
4429;DHT22;2227;47.810;8.810;2023-07-09T16:09:17;37.50;41.30
4429;DHT22;2227;47.810;8.810;2023-07-09T16:11:49;37.10;40.90
4429;DHT22;2227;47.810;8.810;2023-07-09T16:14:27;37.00;41.50
4429;DHT22;2227;47.810;8.810;2023-07-09T16:16:55;37.30;42.20
4429;DHT22;2227;47.810;8.810;2023-07-09T16:19:25;37.40;42.00
4429;DHT22;2227;47.810;8.810;2023-07-09T16:22:01;37.50;41.40
4429;DHT22;2227;47.810;8.810;2023-07-09T16:24:31;37.60;42.50
4429;DHT22;2227;47.810;8.810;2023-07-09T16:27:00;37.50;42.00
4429;DHT22;2227;47.810;8.810;2023-07-09T16:29:30;37.30;41.40
4429;DHT22;2227;47.810;8.810;2023-07-09T16:31:58;37.20;42.00
4429;DHT22;2227;47.810;8.810;2023-07-09T16:34:27;37.10;41.70
4429;DHT22;2227;47.810;8.810;2023-07-09T16:36:55;36.90;41.30
4429;DHT22;2227;47.810;8.810;2023-07-09T16:39:54;36.80;42.30
4429;DHT22;2227;47.810;8.810;2023-07-09T16:42:21;36.80;41.30
4429;DHT22;2227;47.810;8.810;2023-07-09T16:44:48;36.80;41.70
4429;DHT22;2227;47.810;8.810;2023-07-09T16:47:19;36.80;42.50
4429;DHT22;2227;47.810;8.810;2023-07-09T16:49:47;36.70;42.30
4429;DHT22;2227;47.810;8.810;2023-07-09T16:52:19;36.80;41.60
4429;DHT22;2227;47.810;8.810;2023-07-09T16:54:46;36.90;41.50
4429;DHT22;2227;47.810;8.810;2023-07-09T16:57:15;36.80;41.80
4429;DHT22;2227;47.810;8.810;2023-07-09T16:59:43;36.60;41.70
4429;DHT22;2227;47.810;8.810;2023-07-09T17:02:30;36.30;42.10
4429;DHT22;2227;47.810;8.810;2023-07-09T17:05:02;36.00;43.50
4429;DHT22;2227;47.810;8.810;2023-07-09T17:07:32;35.60;44.60
4429;DHT22;2227;47.810;8.810;2023-07-09T17:09:59;35.20;45.10
4429;DHT22;2227;47.810;8.810;2023-07-09T17:12:27;35.00;45.30
4429;DHT22;2227;47.810;8.810;2023-07-09T17:14:54;34.90;45.10
4429;DHT22;2227;47.810;8.810;2023-07-09T17:17:23;34.80;45.40
4429;DHT22;2227;47.810;8.810;2023-07-09T17:19:50;34.80;45.30
4429;DHT22;2227;47.810;8.810;2023-07-09T17:22:20;34.70;45.50
4429;DHT22;2227;47.810;8.810;2023-07-09T17:24:50;34.60;44.60
4429;DHT22;2227;47.810;8.810;2023-07-09T17:27:16;34.60;44.90
4429;DHT22;2227;47.810;8.810;2023-07-09T17:29:43;34.60;45.00
4429;DHT22;2227;47.810;8.810;2023-07-09T17:32:10;34.70;45.10
4429;DHT22;2227;47.810;8.810;2023-07-09T17:34:38;34.60;45.80
4429;DHT22;2227;47.810;8.810;2023-07-09T17:37:12;34.40;46.20
4429;DHT22;2227;47.810;8.810;2023-07-09T17:39:39;34.40;45.90
4429;DHT22;2227;47.810;8.810;2023-07-09T17:42:11;34.30;45.30
4429;DHT22;2227;47.810;8.810;2023-07-09T17:44:41;34.30;46.80
4429;DHT22;2227;47.810;8.810;2023-07-09T17:47:16;34.30;46.50
4429;DHT22;2227;47.810;8.810;2023-07-09T17:49:45;34.50;47.80
4429;DHT22;2227;47.810;8.810;2023-07-09T17:52:19;34.50;45.70
4429;DHT22;2227;47.810;8.810;2023-07-09T17:54:46;34.60;45.80
4429;DHT22;2227;47.810;8.810;2023-07-09T17:57:14;34.60;47.00
4429;DHT22;2227;47.810;8.810;2023-07-09T17:59:42;34.70;47.00
4429;DHT22;2227;47.810;8.810;2023-07-09T18:02:19;34.50;47.10
4429;DHT22;2227;47.810;8.810;2023-07-09T18:04:47;34.10;45.40
4429;DHT22;2227;47.810;8.810;2023-07-09T18:07:22;33.90;46.30
4429;DHT22;2227;47.810;8.810;2023-07-09T18:09:50;33.80;47.60
4429;DHT22;2227;47.810;8.810;2023-07-09T18:12:19;33.80;48.60
4429;DHT22;2227;47.810;8.810;2023-07-09T18:14:48;33.60;49.10
4429;DHT22;2227;47.810;8.810;2023-07-09T18:17:18;33.50;48.50
4429;DHT22;2227;47.810;8.810;2023-07-09T18:19:51;33.30;50.50
4429;DHT22;2227;47.810;8.810;2023-07-09T18:22:20;33.10;51.70
4429;DHT22;2227;47.810;8.810;2023-07-09T18:24:47;33.00;52.50
4429;DHT22;2227;47.810;8.810;2023-07-09T18:27:17;32.90;54.30
4429;DHT22;2227;47.810;8.810;2023-07-09T18:29:47;32.70;54.10
4429;DHT22;2227;47.810;8.810;2023-07-09T18:32:17;32.60;55.00
4429;DHT22;2227;47.810;8.810;2023-07-09T18:34:47;32.40;55.40
4429;DHT22;2227;47.810;8.810;2023-07-09T18:37:17;32.20;56.50
4429;DHT22;2227;47.810;8.810;2023-07-09T18:39:43;32.00;57.60
4429;DHT22;2227;47.810;8.810;2023-07-09T18:42:17;31.90;58.00
4429;DHT22;2227;47.810;8.810;2023-07-09T18:44:44;31.80;57.90
4429;DHT22;2227;47.810;8.810;2023-07-09T18:47:12;31.60;58.20
4429;DHT22;2227;47.810;8.810;2023-07-09T18:49:39;31.40;57.80
4429;DHT22;2227;47.810;8.810;2023-07-09T18:52:15;31.30;59.00
4429;DHT22;2227;47.810;8.810;2023-07-09T18:54:47;31.10;59.30
4429;DHT22;2227;47.810;8.810;2023-07-09T18:57:15;30.90;59.70
4429;DHT22;2227;47.810;8.810;2023-07-09T18:59:42;30.80;60.20
4429;DHT22;2227;47.810;8.810;2023-07-09T19:02:19;30.60;59.90
4429;DHT22;2227;47.810;8.810;2023-07-09T19:04:46;30.50;59.20
4429;DHT22;2227;47.810;8.810;2023-07-09T19:07:17;30.30;58.70
4429;DHT22;2227;47.810;8.810;2023-07-09T19:09:45;30.10;59.90
4429;DHT22;2227;47.810;8.810;2023-07-09T19:12:12;30.00;60.30
4429;DHT22;2227;47.810;8.810;2023-07-09T19:14:40;29.70;59.60
4429;DHT22;2227;47.810;8.810;2023-07-09T19:17:15;29.40;60.80
4429;DHT22;2227;47.810;8.810;2023-07-09T19:19:42;29.20;60.80
4429;DHT22;2227;47.810;8.810;2023-07-09T19:22:12;29.00;61.70
4429;DHT22;2227;47.810;8.810;2023-07-09T19:24:41;28.90;62.90
4429;DHT22;2227;47.810;8.810;2023-07-09T19:27:08;28.80;63.50
4429;DHT22;2227;47.810;8.810;2023-07-09T19:29:35;28.70;62.90
4429;DHT22;2227;47.810;8.810;2023-07-09T19:32:15;28.60;64.20
4429;DHT22;2227;47.810;8.810;2023-07-09T19:34:43;28.60;64.90
4429;DHT22;2227;47.810;8.810;2023-07-09T19:37:22;28.50;65.10
4429;DHT22;2227;47.810;8.810;2023-07-09T19:39:50;28.50;64.60
4429;DHT22;2227;47.810;8.810;2023-07-09T19:42:19;28.40;65.30
4429;DHT22;2227;47.810;8.810;2023-07-09T19:44:46;28.20;65.10
4429;DHT22;2227;47.810;8.810;2023-07-09T19:47:23;28.00;65.60
4429;DHT22;2227;47.810;8.810;2023-07-09T19:49:53;27.80;65.80
4429;DHT22;2227;47.810;8.810;2023-07-09T19:52:20;27.70;66.80
4429;DHT22;2227;47.810;8.810;2023-07-09T19:54:47;27.70;66.60
4429;DHT22;2227;47.810;8.810;2023-07-09T19:57:15;27.60;66.90
4429;DHT22;2227;47.810;8.810;2023-07-09T19:59:42;27.50;67.20
4429;DHT22;2227;47.810;8.810;2023-07-09T20:02:29;27.40;66.80
4429;DHT22;2227;47.810;8.810;2023-07-09T20:04:56;27.30;67.20
4429;DHT22;2227;47.810;8.810;2023-07-09T20:07:23;27.20;67.80
4429;DHT22;2227;47.810;8.810;2023-07-09T20:09:50;27.20;68.60
4429;DHT22;2227;47.810;8.810;2023-07-09T20:12:21;27.20;69.20
4429;DHT22;2227;47.810;8.810;2023-07-09T20:14:49;27.00;69.50
4429;DHT22;2227;47.810;8.810;2023-07-09T20:17:16;26.90;69.50
4429;DHT22;2227;47.810;8.810;2023-07-09T20:19:43;26.70;70.10
4429;DHT22;2227;47.810;8.810;2023-07-09T20:22:12;26.70;70.90
4429;DHT22;2227;47.810;8.810;2023-07-09T20:24:39;26.60;71.50
4429;DHT22;2227;47.810;8.810;2023-07-09T20:27:16;26.60;72.00
4429;DHT22;2227;47.810;8.810;2023-07-09T20:29:44;26.70;72.20
4429;DHT22;2227;47.810;8.810;2023-07-09T20:32:19;26.60;72.90
4429;DHT22;2227;47.810;8.810;2023-07-09T20:34:53;26.60;73.60
4429;DHT22;2227;47.810;8.810;2023-07-09T20:37:21;26.50;74.20
4429;DHT22;2227;47.810;8.810;2023-07-09T20:39:48;26.40;75.10
4429;DHT22;2227;47.810;8.810;2023-07-09T20:42:15;26.40;75.90
4429;DHT22;2227;47.810;8.810;2023-07-09T20:44:43;26.30;78.40
4429;DHT22;2227;47.810;8.810;2023-07-09T20:47:19;26.30;78.80
4429;DHT22;2227;47.810;8.810;2023-07-09T20:49:46;26.20;79.40
4429;DHT22;2227;47.810;8.810;2023-07-09T20:52:13;26.10;80.20
4429;DHT22;2227;47.810;8.810;2023-07-09T20:54:40;26.10;81.00
4429;DHT22;2227;47.810;8.810;2023-07-09T20:57:15;25.90;81.00
4429;DHT22;2227;47.810;8.810;2023-07-09T20:59:44;25.80;81.20
4429;DHT22;2227;47.810;8.810;2023-07-09T21:02:22;25.70;79.90
4429;DHT22;2227;47.810;8.810;2023-07-09T21:04:50;25.60;79.80
4429;DHT22;2227;47.810;8.810;2023-07-09T21:07:17;25.50;80.80
4429;DHT22;2227;47.810;8.810;2023-07-09T21:09:44;25.50;81.40